Antelope Valley, Nevada Weather observations

Data are for 10 minute period ending at time listed.
 Day   Time   Solar   Ave.   Ave.  Ave.  Vector  Max.   Baro.   Total    
  of    of     Rad.   Air    Rel.  Wind   Wind   Wind  Press.  Precip.   
Year   Day            Temp.  Hum.  Speed  Dir.   Gust                    
2016   (PST)  Kw/m2    F      %     mph   deg.    mph    mb.     in.     
-------------------------------------------------------------------------
 339   10:30   0.42   41.9    41    6.8   198     9.1   852.9    0.00 
 339   10:40   0.36   43.0    40    7.7   204    10.1   852.7    0.00 
 339   10:50   0.34   43.4    39    7.9   218     9.8   852.6    0.00 
 339   11:00   0.27   43.7    38    6.4   233     9.7   852.6    0.00 
 339   11:10   0.22   44.0    36    5.9   247     7.3   852.7    0.00 
 339   11:20   0.20   44.3    34    5.5   228     7.2   852.6    0.00 
 339   11:30   0.19   44.5    34    4.1   230     5.6   852.5    0.00 
 339   11:40   0.18   44.8    34    3.6   240     4.5   852.4    0.00 
 339   11:50   0.17   44.4    39    3.6   259     4.8   852.1    0.00 
 339   12:00   0.21   43.9    40    3.6   268     5.4   851.9    0.00 
 339   12:10   0.19   44.2    39    2.0   266     4.5   851.6    0.00 
 339   12:20   0.18   45.2    35    2.9   198     5.2   851.4    0.00 
 339   12:30   0.15   45.5    34    2.8   190     4.7   851.3    0.00 
 339   12:40   0.17   45.9    34    2.7   170     6.4   851.0    0.00 
 339   12:50   0.19   46.9    33    2.2   185     6.6   850.9    0.00 
 339   13:00   0.19   47.2    32    6.9   248    10.3   850.9    0.00 
 339   13:10   0.19   46.7    32    7.6   241     9.9   850.6    0.00 
 339   13:20   0.19   46.8    32    8.1   242    10.5   850.5    0.00 
 339   13:30   0.15   46.5    34    6.7   245     8.8   850.5    0.00 
 339   13:40   0.18   46.7    35    6.3   234     8.6   850.2    0.00 
 339   13:50   0.15   46.9    35    6.6   226     9.4   850.0    0.00 
 339   14:00   0.14   47.1    37    6.4   228     9.2   850.0    0.00 
 339   14:10   0.19   47.4    37    7.4   220    12.1   849.9    0.00 
 339   14:20   0.25   49.6    34    8.1   208    10.6   849.9    0.00 
 339   14:30   0.19   49.5    33    8.5   193    11.0   849.7    0.00 
 339   14:40   0.18   49.1    34    6.5   186    10.1   849.8    0.00 
 339   14:50   0.16   49.6    33    6.5   165     8.6   849.7    0.00 
 339   15:00   0.09   49.1    34    6.8   164    11.3   849.5    0.00 
 339   15:10   0.07   48.8    35    7.2   174    11.6   849.4    0.00 
 339   15:20   0.05   47.9    36    6.4   212     8.3   849.3    0.00 
 339   15:30   0.04   46.5    38    5.0   207     8.8   849.2    0.00 
 339   15:40   0.06   45.7    41    5.7   190     8.3   849.1    0.00 
 339   15:50   0.06   46.2    41    6.1   185     8.4   848.9    0.00 
 339   16:00   0.04   46.1    41    6.9   183     8.6   848.7    0.00 
 339   16:10   0.02   45.6    41    7.5   189    10.9   848.5    0.00 
 339   16:20   0.01   44.8    42    5.5   193     6.9   848.6    0.00 
 339   16:30   0.00   43.8    44    5.2   180     7.3   848.5    0.00 
 339   16:40   0.00   42.9    45    4.5   185     5.8   848.6    0.00 
 339   16:50   0.00   42.2    46    5.9   171     6.9   848.3    0.00 
 339   17:00   0.00   42.0    47    5.1   169     6.2   848.2    0.00 
 339   17:10   0.00   41.9    46    5.3   176     6.6   848.0    0.00 
 339   17:20   0.00   42.7    44    5.6   184     7.4   848.2    0.00 
 339   17:30   0.00   43.2    42    6.8   184    10.1   848.0    0.00 
 339   17:40   0.00   43.8    41    6.9   187     8.8   847.9    0.00 
 339   17:50   0.00   43.9    40    6.3   194     9.8   848.0    0.00 
 339   18:00   0.00   43.1    41    5.0   199     5.8   848.1    0.00 
 339   18:10   0.00   44.0    39    4.8   201     5.8   848.0    0.00 
 339   18:20   0.00   42.1    44    5.5   181     7.0   847.7    0.00 
 339   18:30   0.00   41.9    45    7.2   179     8.7   847.6    0.00 
 339   18:40   0.00   41.9    45    6.9   182     8.6   847.6    0.00 
 339   18:50   0.00   42.3    44    8.7   178    11.1   847.5    0.00 
 339   19:00   0.00   42.5    43    9.1   177    11.1   847.4    0.00 
 339   19:10   0.00   42.4    43    8.8   170    12.3   847.4    0.00 
 339   19:20   0.00   42.4    42    9.5   166    11.8   847.3    0.00 
 339   19:30   0.00   42.4    42    9.9   162    12.8   847.1    0.00 
 339   19:40   0.00   43.1    40   11.2   158    18.0   846.9    0.00 
 339   19:50   0.00   42.6    42    8.5   180    11.4   846.9    0.00 
 339   20:00   0.00   41.7    44    7.2   205     9.6   846.9    0.00 
 339   20:10   0.00   39.7    50    6.9   200     9.2   846.8    0.00 
 339   20:20   0.00   41.0    46   10.5   229    18.3   846.8    0.00 
 339   20:30   0.00   42.2    44   10.6   228    17.5   846.7    0.00 
 339   20:40   0.00   41.6    45   11.6   240    16.4   846.8    0.00 
 339   20:50   0.00   42.6    42   11.8   251    15.3   846.8    0.00 
 339   21:00   0.00   43.1    39   10.3   258    15.7   847.0    0.00 
 339   21:10   0.00   44.3    35   11.3   264    16.8   846.9    0.00 
 339   21:20   0.00   43.9    36   10.2   263    15.9   846.9    0.00 
 339   21:30   0.00   44.2    36   10.1   273    15.6   847.2    0.00 
 339   21:40   0.00   44.2    36    9.6   272    14.1   847.4    0.00 
 339   21:50   0.00   43.9    37   10.6   262    14.3   847.4    0.00 
 339   22:00   0.00   43.9    38   12.8   259    20.1   847.2    0.00 
 339   22:10   0.00   43.9    38   14.0   256    19.7   847.1    0.00 
 339   22:20   0.00   43.9    39   14.7   263    20.8   847.2    0.00 
 339   22:30   0.00   43.8    39   14.5   266    20.1   847.3    0.00 
 339   22:40   0.00   43.8    39   13.2   273    21.6   847.6    0.00 
 339   22:50   0.00   43.9    39   13.9   274    19.6   847.9    0.00 
 339   23:00   0.00   44.0    38   15.5   272    21.3   848.1    0.00 
 339   23:10   0.00   43.8    38   16.0   273    25.1   848.2    0.00 
 339   23:20   0.00   43.2    39   14.2   272    22.1   848.2    0.00 
 339   23:30   0.00   43.0    40   13.6   276    20.7   848.2    0.00 
 339   23:40   0.00   42.8    42   12.3   280    19.6   848.3    0.00 
 339   23:50   0.00   42.5    43   12.7   274    20.7   848.2    0.00 
 340    0:00   0.00   41.1    47    8.8   248    13.2   848.2    0.00 
 340    0:10   0.00   39.2    50    4.2   206     7.4   848.4    0.00 
 340    0:20   0.00   40.0    49    4.7   218     8.0   848.4    0.00 
 340    0:30   0.00   38.7    54    6.8   229    13.1   848.3    0.00 
 340    0:40   0.00   39.3    53    6.2   242     9.7   848.3    0.00 
 340    0:50   0.00   40.0    52    8.8   245    14.5   848.3    0.00 
 340    1:00   0.00   41.2    49    6.0   261    11.3   848.2    0.00 
 340    1:10   0.00   39.2    54    6.7   216     9.6   848.2    0.00 
 340    1:20   0.00   38.2    57    8.2   204    12.3   848.1    0.00 
 340    1:30   0.00   38.0    57    7.6   189    10.7   848.0    0.00 
 340    1:40   0.00   39.9    54    9.5   195    14.9   847.9    0.00 
 340    1:50   0.00   40.2    52    9.6   196    15.0   848.0    0.00 
 340    2:00   0.00   40.4    51    7.6   202    11.1   848.3    0.00 
 340    2:10   0.00   39.3    53    5.9   215     9.6   848.4    0.00 
 340    2:20   0.00   38.1    56    5.5   237    10.5   848.5    0.00 
 340    2:30   0.00   38.4    56    4.5   242     7.7   848.4    0.00 
 340    2:40   0.00   40.0    51    2.7   269     4.2   848.4    0.00 
 340    2:50   0.00   38.5    55    4.4   308     8.3   848.4    0.00 
 340    3:00   0.00   34.5    70    4.5    24     7.2   848.4    0.00 
 340    3:10   0.00   34.3    77    7.1     8    12.3   848.5    0.00 
 340    3:20   0.00   34.5    79    7.5    42    12.0   848.4    0.00 
 340    3:30   0.00   34.7    81    9.5    52    13.2   848.4    0.00 
 340    3:40   0.00   34.6    82    7.8    69    11.2   848.5    0.00 
 340    3:50   0.00   34.7    82    7.4    65    11.5   848.6    0.00 
 340    4:00   0.00   34.8    82    9.0    68    13.2   848.7    0.00 
 340    4:10   0.00   34.2    83   11.8    53    20.3   848.8    0.00 
 340    4:20   0.00   33.5    84   15.4    54    20.2   848.9    0.00 
 340    4:30   0.00   31.8    87   16.8    45    22.7   849.2    0.00 
 340    4:40   0.00   30.4    90   15.4    44    21.3   849.3    0.00 
 340    4:50   0.00   29.5    91   12.4    47    16.8   849.6    0.00 
 340    5:00   0.00   29.1    93   11.3    47    15.6   849.8    0.00 
 340    5:10   0.00   29.2    93   11.1    36    15.3   850.0    0.00 
 340    5:20   0.00   29.2    93   10.6    36    14.0   850.1    0.00 
 340    5:30   0.00   29.1    93   11.1    26    15.1   850.1    0.00 
 340    5:40   0.00   28.9    92   12.2    25    15.3   850.1    0.00 
 340    5:50   0.00   28.7    90   11.0    26    14.2   850.1    0.00 
 340    6:00   0.00   28.5    89    8.5    16    11.6   850.2    0.00 
 340    6:10   0.00   28.2    88    8.5    13    11.8   850.2    0.00 
 340    6:20   0.00   28.2    86    9.7     9    14.4   850.4    0.00 
 340    6:30   0.00   28.4    82   10.0     9    13.0   850.4    0.00 
 340    6:40   0.00   28.5    79    9.5    14    14.2   850.5    0.00 
 340    6:50   0.00   28.6    77    9.0    14    11.9   850.6    0.00 
 340    7:00   0.00   28.9    74    9.1    17    12.2   850.7    0.00 
 340    7:10   0.01   29.0    73    9.1    20    15.3   850.7    0.00 
 340    7:20   0.02   29.0    72    9.3    25    14.0   850.7    0.00 
 340    7:30   0.01   29.1    72    8.6    25    11.9   850.8    0.00 
 340    7:40   0.02   29.1    72    8.6    25    12.8   851.0    0.00 
 340    7:50   0.02   29.2    71    7.5    23    10.0   851.1    0.00 
 340    8:00   0.03   29.3    70    7.8    23    11.1   851.0    0.00 
 340    8:10   0.03   29.4    70    7.5    16    10.4   851.1    0.00 
 340    8:20   0.02   29.4    69    7.0    20    10.3   851.3    0.00 
 340    8:30   0.02   29.5    68    6.2    21     9.3   851.4    0.00 
 340    8:40   0.04   29.6    68    6.7    24     9.6   851.5    0.00 
 340    8:50   0.04   29.8    67    7.4    23    10.2   851.6    0.00 
 340    9:00   0.04   29.8    66    6.2    27     9.8   851.6    0.00 
 340    9:10   0.08   30.0    66    5.5    38     8.2   851.6    0.00 
 340    9:20   0.11   30.4    66    5.2    38     7.8   851.6    0.00 
 340    9:30   0.11   30.4    66    6.9    58     9.2   851.5    0.00 
 340    9:40   0.13   30.6    65    5.8    44     9.2   851.5    0.00 
 340    9:50   0.32   31.2    64    7.4    57     9.9   851.3    0.00 
 340   10:00   0.33   31.3    63    7.5    59    10.7   851.3    0.00 
 340   10:10   0.38   32.0    60    8.3    41    12.6   851.3    0.00 
 340   10:20   0.26   31.6    60    8.0    34    11.1   851.3    0.00 

Return to Antelope Valley graphs page.


Western Regional Climate Center,wrcc@dri.edu